sensor_id;sensor_type;location;lat;lon;timestamp;P1;durP1;ratioP1;P2;durP2;ratioP2
17382;SDS011;8809;51.892;8.384;2022-12-07T00:01:40;38.22;;;24.70;;
17382;SDS011;8809;51.892;8.384;2022-12-07T00:04:12;44.58;;;26.45;;
17382;SDS011;8809;51.892;8.384;2022-12-07T00:06:41;48.90;;;28.23;;
17382;SDS011;8809;51.892;8.384;2022-12-07T00:09:10;39.63;;;26.23;;
17382;SDS011;8809;51.892;8.384;2022-12-07T00:11:38;46.95;;;27.00;;
17382;SDS011;8809;51.892;8.384;2022-12-07T00:14:06;38.47;;;22.13;;
17382;SDS011;8809;51.892;8.384;2022-12-07T00:16:34;34.92;;;22.73;;
17382;SDS011;8809;51.892;8.384;2022-12-07T00:19:02;36.70;;;23.52;;
17382;SDS011;8809;51.892;8.384;2022-12-07T00:21:31;44.20;;;26.73;;
17382;SDS011;8809;51.892;8.384;2022-12-07T00:24:00;38.40;;;24.05;;
17382;SDS011;8809;51.892;8.384;2022-12-07T00:26:28;35.80;;;23.75;;
17382;SDS011;8809;51.892;8.384;2022-12-07T00:28:57;34.17;;;21.42;;
17382;SDS011;8809;51.892;8.384;2022-12-07T00:31:26;34.38;;;22.98;;
17382;SDS011;8809;51.892;8.384;2022-12-07T00:33:54;33.15;;;21.52;;
17382;SDS011;8809;51.892;8.384;2022-12-07T00:36:22;30.48;;;20.23;;
17382;SDS011;8809;51.892;8.384;2022-12-07T00:38:51;27.42;;;18.55;;
17382;SDS011;8809;51.892;8.384;2022-12-07T00:41:18;23.63;;;17.30;;
17382;SDS011;8809;51.892;8.384;2022-12-07T00:43:46;31.10;;;20.98;;
17382;SDS011;8809;51.892;8.384;2022-12-07T00:46:14;31.88;;;21.17;;
17382;SDS011;8809;51.892;8.384;2022-12-07T00:48:42;28.63;;;18.40;;
17382;SDS011;8809;51.892;8.384;2022-12-07T00:51:09;27.17;;;17.95;;
17382;SDS011;8809;51.892;8.384;2022-12-07T00:53:37;25.67;;;18.02;;
17382;SDS011;8809;51.892;8.384;2022-12-07T00:56:07;24.80;;;17.10;;
17382;SDS011;8809;51.892;8.384;2022-12-07T00:58:34;28.27;;;18.88;;
17382;SDS011;8809;51.892;8.384;2022-12-07T01:01:02;31.60;;;20.42;;
17382;SDS011;8809;51.892;8.384;2022-12-07T01:03:30;27.90;;;18.83;;
17382;SDS011;8809;51.892;8.384;2022-12-07T01:05:58;32.75;;;21.40;;
17382;SDS011;8809;51.892;8.384;2022-12-07T01:08:25;27.13;;;18.58;;
17382;SDS011;8809;51.892;8.384;2022-12-07T01:10:57;29.40;;;19.33;;
17382;SDS011;8809;51.892;8.384;2022-12-07T01:13:27;30.30;;;19.35;;
17382;SDS011;8809;51.892;8.384;2022-12-07T01:15:56;24.10;;;17.20;;
17382;SDS011;8809;51.892;8.384;2022-12-07T01:18:25;26.40;;;18.13;;
17382;SDS011;8809;51.892;8.384;2022-12-07T01:20:59;23.85;;;16.60;;
17382;SDS011;8809;51.892;8.384;2022-12-07T01:23:27;24.90;;;16.92;;
17382;SDS011;8809;51.892;8.384;2022-12-07T01:25:55;26.20;;;17.83;;
17382;SDS011;8809;51.892;8.384;2022-12-07T01:28:22;27.55;;;17.52;;
17382;SDS011;8809;51.892;8.384;2022-12-07T01:30:58;26.33;;;17.75;;
17382;SDS011;8809;51.892;8.384;2022-12-07T01:33:27;23.73;;;15.60;;
17382;SDS011;8809;51.892;8.384;2022-12-07T01:35:54;26.50;;;17.60;;
17382;SDS011;8809;51.892;8.384;2022-12-07T01:38:26;26.63;;;17.10;;
17382;SDS011;8809;51.892;8.384;2022-12-07T01:40:54;23.13;;;15.60;;
17382;SDS011;8809;51.892;8.384;2022-12-07T01:43:21;21.98;;;14.85;;
17382;SDS011;8809;51.892;8.384;2022-12-07T01:45:50;21.60;;;14.82;;
17382;SDS011;8809;51.892;8.384;2022-12-07T01:48:18;22.60;;;16.35;;
17382;SDS011;8809;51.892;8.384;2022-12-07T01:50:48;25.40;;;17.05;;
17382;SDS011;8809;51.892;8.384;2022-12-07T01:53:18;20.70;;;14.60;;
17382;SDS011;8809;51.892;8.384;2022-12-07T01:55:47;23.33;;;15.90;;
17382;SDS011;8809;51.892;8.384;2022-12-07T01:58:18;19.90;;;13.95;;
17382;SDS011;8809;51.892;8.384;2022-12-07T02:00:46;22.10;;;14.77;;
17382;SDS011;8809;51.892;8.384;2022-12-07T02:03:13;19.40;;;13.60;;
17382;SDS011;8809;51.892;8.384;2022-12-07T02:05:46;22.52;;;14.95;;
17382;SDS011;8809;51.892;8.384;2022-12-07T02:08:14;19.85;;;14.73;;
17382;SDS011;8809;51.892;8.384;2022-12-07T02:10:42;20.10;;;13.85;;
17382;SDS011;8809;51.892;8.384;2022-12-07T02:13:10;23.63;;;15.68;;
17382;SDS011;8809;51.892;8.384;2022-12-07T02:15:50;19.55;;;13.80;;
17382;SDS011;8809;51.892;8.384;2022-12-07T02:18:29;20.17;;;13.57;;
17382;SDS011;8809;51.892;8.384;2022-12-07T02:21:10;23.60;;;15.35;;
17382;SDS011;8809;51.892;8.384;2022-12-07T02:23:40;23.33;;;15.63;;
17382;SDS011;8809;51.892;8.384;2022-12-07T02:26:27;21.05;;;14.18;;
17382;SDS011;8809;51.892;8.384;2022-12-07T02:29:19;18.30;;;12.90;;
17382;SDS011;8809;51.892;8.384;2022-12-07T02:31:55;17.92;;;13.30;;
17382;SDS011;8809;51.892;8.384;2022-12-07T02:34:31;20.52;;;14.55;;
17382;SDS011;8809;51.892;8.384;2022-12-07T02:37:05;18.70;;;12.13;;
17382;SDS011;8809;51.892;8.384;2022-12-07T02:39:41;17.52;;;12.60;;
17382;SDS011;8809;51.892;8.384;2022-12-07T02:42:15;17.33;;;12.77;;
17382;SDS011;8809;51.892;8.384;2022-12-07T02:44:48;19.55;;;13.25;;
17382;SDS011;8809;51.892;8.384;2022-12-07T02:47:16;16.33;;;12.10;;
17382;SDS011;8809;51.892;8.384;2022-12-07T02:49:45;18.27;;;12.23;;
17382;SDS011;8809;51.892;8.384;2022-12-07T02:52:13;18.83;;;12.43;;
17382;SDS011;8809;51.892;8.384;2022-12-07T02:54:40;16.88;;;11.25;;
17382;SDS011;8809;51.892;8.384;2022-12-07T02:57:11;16.35;;;11.23;;
17382;SDS011;8809;51.892;8.384;2022-12-07T02:59:57;16.63;;;11.50;;
17382;SDS011;8809;51.892;8.384;2022-12-07T03:02:30;15.50;;;10.88;;
17382;SDS011;8809;51.892;8.384;2022-12-07T03:05:09;14.95;;;10.82;;
17382;SDS011;8809;51.892;8.384;2022-12-07T03:07:49;16.70;;;11.95;;
17382;SDS011;8809;51.892;8.384;2022-12-07T03:10:22;15.23;;;10.30;;
17382;SDS011;8809;51.892;8.384;2022-12-07T03:12:58;16.13;;;10.38;;
17382;SDS011;8809;51.892;8.384;2022-12-07T03:15:33;13.88;;;9.93;;
17382;SDS011;8809;51.892;8.384;2022-12-07T03:18:06;13.38;;;9.27;;
17382;SDS011;8809;51.892;8.384;2022-12-07T03:20:35;11.10;;;8.75;;
17382;SDS011;8809;51.892;8.384;2022-12-07T03:23:05;12.57;;;8.82;;
17382;SDS011;8809;51.892;8.384;2022-12-07T03:25:37;13.80;;;9.68;;
17382;SDS011;8809;51.892;8.384;2022-12-07T03:28:07;14.85;;;9.88;;
17382;SDS011;8809;51.892;8.384;2022-12-07T03:30:39;14.13;;;9.20;;
17382;SDS011;8809;51.892;8.384;2022-12-07T03:33:12;12.35;;;9.25;;
17382;SDS011;8809;51.892;8.384;2022-12-07T03:35:45;12.82;;;8.90;;
17382;SDS011;8809;51.892;8.384;2022-12-07T03:38:15;14.65;;;10.20;;
17382;SDS011;8809;51.892;8.384;2022-12-07T03:40:47;13.20;;;8.50;;
17382;SDS011;8809;51.892;8.384;2022-12-07T03:43:19;12.57;;;8.98;;
17382;SDS011;8809;51.892;8.384;2022-12-07T03:45:51;14.52;;;8.45;;
17382;SDS011;8809;51.892;8.384;2022-12-07T03:48:26;14.82;;;8.40;;
17382;SDS011;8809;51.892;8.384;2022-12-07T03:51:00;13.25;;;8.52;;
17382;SDS011;8809;51.892;8.384;2022-12-07T03:53:35;13.02;;;8.70;;
17382;SDS011;8809;51.892;8.384;2022-12-07T03:56:06;14.07;;;9.27;;
17382;SDS011;8809;51.892;8.384;2022-12-07T03:58:36;13.70;;;9.50;;
17382;SDS011;8809;51.892;8.384;2022-12-07T04:01:06;13.25;;;9.90;;
17382;SDS011;8809;51.892;8.384;2022-12-07T04:03:33;13.52;;;8.57;;
17382;SDS011;8809;51.892;8.384;2022-12-07T04:06:00;13.15;;;8.73;;
17382;SDS011;8809;51.892;8.384;2022-12-07T04:08:27;12.02;;;8.68;;
17382;SDS011;8809;51.892;8.384;2022-12-07T04:10:54;13.90;;;9.25;;
17382;SDS011;8809;51.892;8.384;2022-12-07T04:13:21;12.60;;;9.32;;
17382;SDS011;8809;51.892;8.384;2022-12-07T04:15:48;13.93;;;9.18;;
17382;SDS011;8809;51.892;8.384;2022-12-07T04:18:16;14.18;;;10.07;;
17382;SDS011;8809;51.892;8.384;2022-12-07T04:20:43;14.65;;;9.20;;
17382;SDS011;8809;51.892;8.384;2022-12-07T04:23:11;13.07;;;9.45;;
17382;SDS011;8809;51.892;8.384;2022-12-07T04:25:38;14.25;;;9.00;;
17382;SDS011;8809;51.892;8.384;2022-12-07T04:28:05;12.02;;;9.10;;
17382;SDS011;8809;51.892;8.384;2022-12-07T04:30:32;12.65;;;9.60;;
17382;SDS011;8809;51.892;8.384;2022-12-07T04:32:58;11.50;;;9.13;;
17382;SDS011;8809;51.892;8.384;2022-12-07T04:35:27;12.13;;;8.80;;
17382;SDS011;8809;51.892;8.384;2022-12-07T04:37:54;15.00;;;9.20;;
17382;SDS011;8809;51.892;8.384;2022-12-07T04:40:20;13.63;;;9.57;;
17382;SDS011;8809;51.892;8.384;2022-12-07T04:42:47;12.38;;;8.60;;
17382;SDS011;8809;51.892;8.384;2022-12-07T04:45:14;14.45;;;9.73;;
17382;SDS011;8809;51.892;8.384;2022-12-07T04:47:41;14.82;;;9.50;;
17382;SDS011;8809;51.892;8.384;2022-12-07T04:50:09;14.70;;;10.20;;
17382;SDS011;8809;51.892;8.384;2022-12-07T04:52:39;16.50;;;9.98;;
17382;SDS011;8809;51.892;8.384;2022-12-07T04:55:07;14.75;;;9.95;;
17382;SDS011;8809;51.892;8.384;2022-12-07T04:57:34;13.18;;;8.98;;
17382;SDS011;8809;51.892;8.384;2022-12-07T05:00:00;16.38;;;10.00;;
17382;SDS011;8809;51.892;8.384;2022-12-07T05:02:27;17.70;;;11.02;;
17382;SDS011;8809;51.892;8.384;2022-12-07T05:04:54;13.70;;;9.32;;
17382;SDS011;8809;51.892;8.384;2022-12-07T05:07:21;15.60;;;10.23;;
17382;SDS011;8809;51.892;8.384;2022-12-07T05:09:49;14.98;;;9.77;;
17382;SDS011;8809;51.892;8.384;2022-12-07T05:12:16;13.38;;;8.90;;
17382;SDS011;8809;51.892;8.384;2022-12-07T05:14:43;14.02;;;9.68;;
17382;SDS011;8809;51.892;8.384;2022-12-07T05:17:10;11.05;;;7.70;;
17382;SDS011;8809;51.892;8.384;2022-12-07T05:19:37;12.57;;;8.52;;
17382;SDS011;8809;51.892;8.384;2022-12-07T05:22:04;14.10;;;9.40;;
17382;SDS011;8809;51.892;8.384;2022-12-07T05:24:31;13.23;;;8.85;;
17382;SDS011;8809;51.892;8.384;2022-12-07T05:26:59;12.82;;;8.40;;
17382;SDS011;8809;51.892;8.384;2022-12-07T05:29:26;14.15;;;9.63;;
17382;SDS011;8809;51.892;8.384;2022-12-07T05:31:53;14.55;;;9.85;;
17382;SDS011;8809;51.892;8.384;2022-12-07T05:34:20;13.13;;;8.73;;
17382;SDS011;8809;51.892;8.384;2022-12-07T05:36:47;17.90;;;9.90;;
17382;SDS011;8809;51.892;8.384;2022-12-07T05:39:14;12.70;;;8.88;;
17382;SDS011;8809;51.892;8.384;2022-12-07T05:41:41;14.77;;;8.90;;
17382;SDS011;8809;51.892;8.384;2022-12-07T05:44:27;15.07;;;9.70;;
17382;SDS011;8809;51.892;8.384;2022-12-07T05:46:54;14.30;;;9.93;;
17382;SDS011;8809;51.892;8.384;2022-12-07T05:49:20;16.15;;;8.80;;
17382;SDS011;8809;51.892;8.384;2022-12-07T05:51:47;12.38;;;8.52;;
17382;SDS011;8809;51.892;8.384;2022-12-07T05:54:14;14.70;;;9.57;;
17382;SDS011;8809;51.892;8.384;2022-12-07T05:56:41;10.23;;;7.65;;
17382;SDS011;8809;51.892;8.384;2022-12-07T05:59:08;12.48;;;7.80;;
17382;SDS011;8809;51.892;8.384;2022-12-07T06:01:54;14.05;;;9.43;;
17382;SDS011;8809;51.892;8.384;2022-12-07T06:04:23;11.95;;;8.60;;
17382;SDS011;8809;51.892;8.384;2022-12-07T06:06:50;11.13;;;8.38;;
17382;SDS011;8809;51.892;8.384;2022-12-07T06:09:17;15.13;;;8.68;;
17382;SDS011;8809;51.892;8.384;2022-12-07T06:11:45;12.95;;;8.20;;
17382;SDS011;8809;51.892;8.384;2022-12-07T06:14:29;14.48;;;8.45;;
17382;SDS011;8809;51.892;8.384;2022-12-07T06:16:58;13.13;;;8.73;;
17382;SDS011;8809;51.892;8.384;2022-12-07T06:19:25;14.13;;;9.18;;
17382;SDS011;8809;51.892;8.384;2022-12-07T06:21:52;14.18;;;8.60;;
17382;SDS011;8809;51.892;8.384;2022-12-07T06:24:20;13.05;;;8.60;;
17382;SDS011;8809;51.892;8.384;2022-12-07T06:26:47;12.80;;;7.78;;
17382;SDS011;8809;51.892;8.384;2022-12-07T06:29:14;14.48;;;9.45;;
17382;SDS011;8809;51.892;8.384;2022-12-07T06:31:42;15.20;;;8.20;;
17382;SDS011;8809;51.892;8.384;2022-12-07T06:34:11;15.35;;;9.27;;
17382;SDS011;8809;51.892;8.384;2022-12-07T06:36:39;15.05;;;8.90;;
17382;SDS011;8809;51.892;8.384;2022-12-07T06:39:06;14.10;;;8.60;;
17382;SDS011;8809;51.892;8.384;2022-12-07T06:41:35;13.77;;;8.52;;
17382;SDS011;8809;51.892;8.384;2022-12-07T06:44:03;12.07;;;7.72;;
17382;SDS011;8809;51.892;8.384;2022-12-07T06:46:31;13.95;;;8.07;;
17382;SDS011;8809;51.892;8.384;2022-12-07T06:48:58;14.38;;;8.57;;
17382;SDS011;8809;51.892;8.384;2022-12-07T06:51:29;13.55;;;8.07;;
17382;SDS011;8809;51.892;8.384;2022-12-07T06:53:56;18.83;;;9.45;;
17382;SDS011;8809;51.892;8.384;2022-12-07T06:56:23;14.98;;;9.13;;
17382;SDS011;8809;51.892;8.384;2022-12-07T06:58:50;14.80;;;9.35;;
17382;SDS011;8809;51.892;8.384;2022-12-07T07:01:17;14.70;;;8.23;;
17382;SDS011;8809;51.892;8.384;2022-12-07T07:03:45;14.98;;;7.82;;
17382;SDS011;8809;51.892;8.384;2022-12-07T07:06:12;13.98;;;8.45;;
17382;SDS011;8809;51.892;8.384;2022-12-07T07:08:41;17.92;;;8.57;;
17382;SDS011;8809;51.892;8.384;2022-12-07T07:11:08;10.88;;;7.32;;
17382;SDS011;8809;51.892;8.384;2022-12-07T07:13:36;13.48;;;8.75;;
17382;SDS011;8809;51.892;8.384;2022-12-07T07:16:03;14.95;;;8.18;;
17382;SDS011;8809;51.892;8.384;2022-12-07T07:18:31;13.15;;;7.47;;
17382;SDS011;8809;51.892;8.384;2022-12-07T07:20:58;11.63;;;7.70;;
17382;SDS011;8809;51.892;8.384;2022-12-07T07:23:25;11.10;;;7.65;;
17382;SDS011;8809;51.892;8.384;2022-12-07T07:25:54;14.38;;;7.53;;
17382;SDS011;8809;51.892;8.384;2022-12-07T07:28:20;11.45;;;7.60;;
17382;SDS011;8809;51.892;8.384;2022-12-07T07:30:47;12.75;;;7.68;;
17382;SDS011;8809;51.892;8.384;2022-12-07T07:33:15;12.43;;;7.63;;
17382;SDS011;8809;51.892;8.384;2022-12-07T07:35:43;14.13;;;7.43;;
17382;SDS011;8809;51.892;8.384;2022-12-07T07:38:11;11.55;;;7.13;;
17382;SDS011;8809;51.892;8.384;2022-12-07T07:40:38;10.10;;;7.00;;
17382;SDS011;8809;51.892;8.384;2022-12-07T07:43:09;9.70;;;6.15;;
17382;SDS011;8809;51.892;8.384;2022-12-07T07:45:36;12.07;;;7.40;;
17382;SDS011;8809;51.892;8.384;2022-12-07T07:48:03;10.63;;;6.25;;
17382;SDS011;8809;51.892;8.384;2022-12-07T07:50:30;11.52;;;6.47;;
17382;SDS011;8809;51.892;8.384;2022-12-07T07:52:57;9.40;;;6.28;;
17382;SDS011;8809;51.892;8.384;2022-12-07T07:55:24;13.68;;;6.97;;
17382;SDS011;8809;51.892;8.384;2022-12-07T07:57:52;10.77;;;7.32;;
17382;SDS011;8809;51.892;8.384;2022-12-07T08:00:22;10.23;;;7.32;;
17382;SDS011;8809;51.892;8.384;2022-12-07T08:02:49;8.70;;;6.40;;
17382;SDS011;8809;51.892;8.384;2022-12-07T08:05:16;12.35;;;6.85;;
17382;SDS011;8809;51.892;8.384;2022-12-07T08:07:43;11.20;;;6.75;;
17382;SDS011;8809;51.892;8.384;2022-12-07T08:10:11;10.95;;;6.00;;
17382;SDS011;8809;51.892;8.384;2022-12-07T08:12:40;10.27;;;5.70;;
17382;SDS011;8809;51.892;8.384;2022-12-07T08:15:24;10.18;;;6.43;;
17382;SDS011;8809;51.892;8.384;2022-12-07T08:17:51;10.55;;;6.72;;
17382;SDS011;8809;51.892;8.384;2022-12-07T08:20:19;10.05;;;6.55;;
17382;SDS011;8809;51.892;8.384;2022-12-07T08:22:46;9.65;;;6.13;;
17382;SDS011;8809;51.892;8.384;2022-12-07T08:25:12;13.00;;;7.25;;
17382;SDS011;8809;51.892;8.384;2022-12-07T08:27:39;9.45;;;6.10;;
17382;SDS011;8809;51.892;8.384;2022-12-07T08:30:07;12.05;;;6.88;;
17382;SDS011;8809;51.892;8.384;2022-12-07T08:32:35;13.65;;;7.18;;
17382;SDS011;8809;51.892;8.384;2022-12-07T08:35:03;10.05;;;5.93;;
17382;SDS011;8809;51.892;8.384;2022-12-07T08:37:31;10.07;;;7.10;;
17382;SDS011;8809;51.892;8.384;2022-12-07T08:39:58;12.27;;;7.55;;
17382;SDS011;8809;51.892;8.384;2022-12-07T08:42:25;12.00;;;7.75;;
17382;SDS011;8809;51.892;8.384;2022-12-07T08:44:55;13.45;;;7.03;;
17382;SDS011;8809;51.892;8.384;2022-12-07T08:47:23;9.98;;;6.32;;
17382;SDS011;8809;51.892;8.384;2022-12-07T08:49:53;14.35;;;7.47;;
17382;SDS011;8809;51.892;8.384;2022-12-07T08:52:20;15.65;;;7.25;;
17382;SDS011;8809;51.892;8.384;2022-12-07T08:54:49;13.02;;;6.72;;
17382;SDS011;8809;51.892;8.384;2022-12-07T08:57:16;11.43;;;6.78;;
17382;SDS011;8809;51.892;8.384;2022-12-07T08:59:43;11.77;;;6.80;;
17382;SDS011;8809;51.892;8.384;2022-12-07T09:02:10;6.93;;;5.18;;
17382;SDS011;8809;51.892;8.384;2022-12-07T09:04:37;10.95;;;5.80;;
17382;SDS011;8809;51.892;8.384;2022-12-07T09:07:06;12.18;;;6.53;;
17382;SDS011;8809;51.892;8.384;2022-12-07T09:09:33;12.93;;;6.00;;
17382;SDS011;8809;51.892;8.384;2022-12-07T09:12:00;8.77;;;5.70;;
17382;SDS011;8809;51.892;8.384;2022-12-07T09:14:27;9.93;;;5.82;;
17382;SDS011;8809;51.892;8.384;2022-12-07T09:16:54;11.10;;;5.60;;
17382;SDS011;8809;51.892;8.384;2022-12-07T09:19:21;10.48;;;6.22;;
17382;SDS011;8809;51.892;8.384;2022-12-07T09:21:48;10.05;;;5.55;;
17382;SDS011;8809;51.892;8.384;2022-12-07T09:24:16;10.68;;;5.63;;
17382;SDS011;8809;51.892;8.384;2022-12-07T09:26:43;9.00;;;4.70;;
17382;SDS011;8809;51.892;8.384;2022-12-07T09:29:10;8.45;;;4.72;;
17382;SDS011;8809;51.892;8.384;2022-12-07T09:31:37;7.15;;;4.60;;
17382;SDS011;8809;51.892;8.384;2022-12-07T09:34:04;6.97;;;4.78;;
17382;SDS011;8809;51.892;8.384;2022-12-07T09:36:32;8.63;;;5.68;;
17382;SDS011;8809;51.892;8.384;2022-12-07T09:38:59;8.80;;;4.63;;
17382;SDS011;8809;51.892;8.384;2022-12-07T09:41:29;9.02;;;5.15;;
17382;SDS011;8809;51.892;8.384;2022-12-07T09:43:58;8.57;;;5.38;;
17382;SDS011;8809;51.892;8.384;2022-12-07T09:46:31;9.80;;;5.53;;
17382;SDS011;8809;51.892;8.384;2022-12-07T09:49:03;8.98;;;4.32;;
17382;SDS011;8809;51.892;8.384;2022-12-07T09:51:37;7.53;;;4.50;;
17382;SDS011;8809;51.892;8.384;2022-12-07T09:54:04;6.68;;;4.63;;
17382;SDS011;8809;51.892;8.384;2022-12-07T09:56:33;7.68;;;4.38;;
17382;SDS011;8809;51.892;8.384;2022-12-07T09:59:00;8.65;;;4.75;;
17382;SDS011;8809;51.892;8.384;2022-12-07T10:01:29;9.48;;;4.50;;
17382;SDS011;8809;51.892;8.384;2022-12-07T10:04:05;9.05;;;4.20;;
17382;SDS011;8809;51.892;8.384;2022-12-07T10:06:36;6.47;;;4.20;;
17382;SDS011;8809;51.892;8.384;2022-12-07T10:09:08;8.73;;;4.75;;
17382;SDS011;8809;51.892;8.384;2022-12-07T10:14:31;8.75;;;4.38;;
17382;SDS011;8809;51.892;8.384;2022-12-07T10:16:59;7.88;;;4.28;;
17382;SDS011;8809;51.892;8.384;2022-12-07T10:19:27;8.63;;;4.10;;
17382;SDS011;8809;51.892;8.384;2022-12-07T10:22:07;5.97;;;3.60;;
17382;SDS011;8809;51.892;8.384;2022-12-07T10:24:37;7.85;;;3.83;;
17382;SDS011;8809;51.892;8.384;2022-12-07T10:27:13;7.18;;;3.97;;
17382;SDS011;8809;51.892;8.384;2022-12-07T10:29:46;6.53;;;3.80;;
17382;SDS011;8809;51.892;8.384;2022-12-07T10:32:26;7.63;;;3.50;;
17382;SDS011;8809;51.892;8.384;2022-12-07T10:35:18;8.55;;;3.92;;
17382;SDS011;8809;51.892;8.384;2022-12-07T10:37:48;4.93;;;3.75;;
17382;SDS011;8809;51.892;8.384;2022-12-07T10:43:04;7.05;;;3.53;;
17382;SDS011;8809;51.892;8.384;2022-12-07T10:45:59;5.78;;;3.70;;
17382;SDS011;8809;51.892;8.384;2022-12-07T10:48:41;7.75;;;3.95;;
17382;SDS011;8809;51.892;8.384;2022-12-07T10:51:18;5.75;;;3.45;;
17382;SDS011;8809;51.892;8.384;2022-12-07T10:53:57;7.72;;;3.78;;
17382;SDS011;8809;51.892;8.384;2022-12-07T10:59:34;8.93;;;3.85;;
17382;SDS011;8809;51.892;8.384;2022-12-07T11:02:20;7.00;;;3.50;;
17382;SDS011;8809;51.892;8.384;2022-12-07T11:04:59;5.50;;;3.83;;
17382;SDS011;8809;51.892;8.384;2022-12-07T11:07:39;6.15;;;2.97;;
17382;SDS011;8809;51.892;8.384;2022-12-07T11:10:15;6.30;;;3.60;;
17382;SDS011;8809;51.892;8.384;2022-12-07T11:13:01;4.93;;;3.25;;
17382;SDS011;8809;51.892;8.384;2022-12-07T11:15:42;6.55;;;3.70;;
17382;SDS011;8809;51.892;8.384;2022-12-07T11:18:22;6.00;;;3.60;;
17382;SDS011;8809;51.892;8.384;2022-12-07T11:20:55;7.22;;;3.75;;
17382;SDS011;8809;51.892;8.384;2022-12-07T11:23:34;5.85;;;3.17;;
17382;SDS011;8809;51.892;8.384;2022-12-07T11:26:14;8.82;;;3.58;;
17382;SDS011;8809;51.892;8.384;2022-12-07T11:28:59;4.55;;;3.60;;
17382;SDS011;8809;51.892;8.384;2022-12-07T11:31:45;5.93;;;3.50;;
17382;SDS011;8809;51.892;8.384;2022-12-07T11:34:23;7.13;;;3.35;;
17382;SDS011;8809;51.892;8.384;2022-12-07T11:36:54;6.88;;;3.30;;
17382;SDS011;8809;51.892;8.384;2022-12-07T11:39:25;5.32;;;3.17;;
17382;SDS011;8809;51.892;8.384;2022-12-07T11:41:59;5.43;;;3.60;;
17382;SDS011;8809;51.892;8.384;2022-12-07T11:44:30;4.72;;;3.17;;
17382;SDS011;8809;51.892;8.384;2022-12-07T11:47:05;8.52;;;3.45;;
17382;SDS011;8809;51.892;8.384;2022-12-07T11:49:40;8.93;;;3.30;;
17382;SDS011;8809;51.892;8.384;2022-12-07T11:52:14;6.82;;;3.67;;
17382;SDS011;8809;51.892;8.384;2022-12-07T11:54:46;5.25;;;3.60;;
17382;SDS011;8809;51.892;8.384;2022-12-07T11:57:17;6.90;;;3.50;;
17382;SDS011;8809;51.892;8.384;2022-12-07T11:59:56;6.95;;;3.63;;
17382;SDS011;8809;51.892;8.384;2022-12-07T12:02:32;7.75;;;3.85;;
17382;SDS011;8809;51.892;8.384;2022-12-07T12:05:05;7.78;;;4.05;;
17382;SDS011;8809;51.892;8.384;2022-12-07T12:07:41;7.72;;;3.90;;
17382;SDS011;8809;51.892;8.384;2022-12-07T12:10:15;10.93;;;4.43;;
17382;SDS011;8809;51.892;8.384;2022-12-07T12:12:52;6.25;;;3.95;;
17382;SDS011;8809;51.892;8.384;2022-12-07T12:15:35;5.68;;;3.80;;
17382;SDS011;8809;51.892;8.384;2022-12-07T12:21:19;6.30;;;3.47;;
17382;SDS011;8809;51.892;8.384;2022-12-07T12:23:49;8.20;;;4.10;;
17382;SDS011;8809;51.892;8.384;2022-12-07T12:26:26;8.43;;;4.40;;
17382;SDS011;8809;51.892;8.384;2022-12-07T12:28:56;5.78;;;3.55;;
17382;SDS011;8809;51.892;8.384;2022-12-07T12:31:36;6.85;;;3.47;;
17382;SDS011;8809;51.892;8.384;2022-12-07T12:36:58;3.78;;;3.13;;
17382;SDS011;8809;51.892;8.384;2022-12-07T12:39:25;7.88;;;3.42;;
17382;SDS011;8809;51.892;8.384;2022-12-07T12:41:53;7.38;;;3.67;;
17382;SDS011;8809;51.892;8.384;2022-12-07T12:47:40;8.35;;;2.97;;
17382;SDS011;8809;51.892;8.384;2022-12-07T12:50:33;6.13;;;2.65;;
17382;SDS011;8809;51.892;8.384;2022-12-07T12:53:21;9.10;;;3.28;;
17382;SDS011;8809;51.892;8.384;2022-12-07T13:01:50;10.38;;;5.38;;
17382;SDS011;8809;51.892;8.384;2022-12-07T13:04:25;15.95;;;9.43;;
17382;SDS011;8809;51.892;8.384;2022-12-07T13:10:23;7.70;;;5.53;;
17382;SDS011;8809;51.892;8.384;2022-12-07T13:13:28;26.42;;;14.20;;
17382;SDS011;8809;51.892;8.384;2022-12-07T13:25:20;24.98;;;14.60;;
17382;SDS011;8809;51.892;8.384;2022-12-07T13:27:57;47.92;;;26.88;;
17382;SDS011;8809;51.892;8.384;2022-12-07T13:30:27;29.85;;;15.40;;
17382;SDS011;8809;51.892;8.384;2022-12-07T13:32:57;35.45;;;18.85;;
17382;SDS011;8809;51.892;8.384;2022-12-07T13:35:32;27.52;;;15.27;;
17382;SDS011;8809;51.892;8.384;2022-12-07T13:38:04;53.22;;;28.52;;
17382;SDS011;8809;51.892;8.384;2022-12-07T13:40:34;45.45;;;24.25;;
17382;SDS011;8809;51.892;8.384;2022-12-07T13:43:02;40.05;;;21.58;;
17382;SDS011;8809;51.892;8.384;2022-12-07T13:45:31;18.42;;;10.68;;
17382;SDS011;8809;51.892;8.384;2022-12-07T13:48:15;18.30;;;10.73;;
17382;SDS011;8809;51.892;8.384;2022-12-07T13:50:52;13.77;;;8.85;;
17382;SDS011;8809;51.892;8.384;2022-12-07T13:53:20;11.52;;;5.50;;
17382;SDS011;8809;51.892;8.384;2022-12-07T13:55:48;11.65;;;5.18;;
17382;SDS011;8809;51.892;8.384;2022-12-07T13:58:15;22.42;;;12.68;;
17382;SDS011;8809;51.892;8.384;2022-12-07T14:00:43;33.42;;;17.13;;
17382;SDS011;8809;51.892;8.384;2022-12-07T14:03:23;23.02;;;11.70;;
17382;SDS011;8809;51.892;8.384;2022-12-07T14:06:11;15.18;;;7.22;;
17382;SDS011;8809;51.892;8.384;2022-12-07T14:08:41;19.65;;;10.27;;
17382;SDS011;8809;51.892;8.384;2022-12-07T14:11:12;10.95;;;4.38;;
17382;SDS011;8809;51.892;8.384;2022-12-07T14:13:44;8.38;;;4.80;;
17382;SDS011;8809;51.892;8.384;2022-12-07T14:16:22;8.48;;;3.50;;
17382;SDS011;8809;51.892;8.384;2022-12-07T14:18:53;8.73;;;4.72;;
17382;SDS011;8809;51.892;8.384;2022-12-07T14:21:21;9.50;;;4.78;;
17382;SDS011;8809;51.892;8.384;2022-12-07T14:24:02;8.70;;;3.35;;
17382;SDS011;8809;51.892;8.384;2022-12-07T14:26:37;13.27;;;5.68;;
17382;SDS011;8809;51.892;8.384;2022-12-07T14:29:29;7.25;;;3.70;;
17382;SDS011;8809;51.892;8.384;2022-12-07T14:31:59;7.80;;;3.60;;
17382;SDS011;8809;51.892;8.384;2022-12-07T14:34:52;7.05;;;2.72;;
17382;SDS011;8809;51.892;8.384;2022-12-07T14:37:23;6.95;;;3.03;;
17382;SDS011;8809;51.892;8.384;2022-12-07T14:39:50;7.30;;;3.08;;
17382;SDS011;8809;51.892;8.384;2022-12-07T14:42:18;5.78;;;3.10;;
17382;SDS011;8809;51.892;8.384;2022-12-07T14:44:46;7.15;;;2.72;;
17382;SDS011;8809;51.892;8.384;2022-12-07T14:47:13;6.65;;;2.80;;
17382;SDS011;8809;51.892;8.384;2022-12-07T14:49:40;6.82;;;2.85;;
17382;SDS011;8809;51.892;8.384;2022-12-07T14:52:09;8.55;;;2.85;;
17382;SDS011;8809;51.892;8.384;2022-12-07T14:54:41;4.47;;;2.83;;
17382;SDS011;8809;51.892;8.384;2022-12-07T14:57:09;8.57;;;3.10;;
17382;SDS011;8809;51.892;8.384;2022-12-07T14:59:38;6.32;;;3.10;;
17382;SDS011;8809;51.892;8.384;2022-12-07T15:02:05;8.32;;;3.15;;
17382;SDS011;8809;51.892;8.384;2022-12-07T15:04:33;6.38;;;2.90;;
17382;SDS011;8809;51.892;8.384;2022-12-07T15:07:01;11.45;;;3.72;;
17382;SDS011;8809;51.892;8.384;2022-12-07T15:09:29;11.95;;;3.92;;
17382;SDS011;8809;51.892;8.384;2022-12-07T15:11:56;5.78;;;3.30;;
17382;SDS011;8809;51.892;8.384;2022-12-07T15:14:23;7.15;;;3.60;;
17382;SDS011;8809;51.892;8.384;2022-12-07T15:16:52;12.77;;;3.60;;
17382;SDS011;8809;51.892;8.384;2022-12-07T15:19:19;8.90;;;3.47;;
17382;SDS011;8809;51.892;8.384;2022-12-07T15:21:48;8.45;;;3.60;;
17382;SDS011;8809;51.892;8.384;2022-12-07T15:24:15;7.88;;;3.83;;
17382;SDS011;8809;51.892;8.384;2022-12-07T15:26:42;11.98;;;4.18;;
17382;SDS011;8809;51.892;8.384;2022-12-07T15:29:10;11.75;;;3.92;;
17382;SDS011;8809;51.892;8.384;2022-12-07T15:31:39;10.45;;;4.03;;
17382;SDS011;8809;51.892;8.384;2022-12-07T15:34:08;7.78;;;3.38;;
17382;SDS011;8809;51.892;8.384;2022-12-07T15:36:35;7.13;;;3.67;;
17382;SDS011;8809;51.892;8.384;2022-12-07T15:39:02;8.48;;;3.80;;
17382;SDS011;8809;51.892;8.384;2022-12-07T15:41:29;9.13;;;4.15;;
17382;SDS011;8809;51.892;8.384;2022-12-07T15:43:56;8.18;;;3.67;;
17382;SDS011;8809;51.892;8.384;2022-12-07T15:46:41;7.70;;;4.03;;